createdAt,value
2017-12-19T00:01:45.652Z,1.80
2017-12-19T00:04:13.181Z,1.80
2017-12-19T00:06:40.764Z,1.80
2017-12-19T00:09:08.334Z,1.80
2017-12-19T00:11:35.914Z,1.80
2017-12-19T00:14:03.448Z,1.80
2017-12-19T00:16:31.032Z,1.80
2017-12-19T00:18:58.568Z,1.80
2017-12-19T00:21:26.136Z,1.80
2017-12-19T00:23:53.663Z,1.80
2017-12-19T00:26:21.267Z,1.80
2017-12-19T00:28:48.797Z,1.80
2017-12-19T00:31:16.328Z,1.80
2017-12-19T00:33:44.661Z,1.80
2017-12-19T00:36:12.236Z,1.80
2017-12-19T00:38:39.768Z,1.80
2017-12-19T00:41:07.336Z,1.70
2017-12-19T00:43:34.868Z,1.80
2017-12-19T00:46:02.440Z,1.80
2017-12-19T00:48:29.973Z,1.80
2017-12-19T00:50:57.548Z,1.70
2017-12-19T00:53:25.080Z,1.70
2017-12-19T00:55:53.424Z,1.70
2017-12-19T00:58:20.955Z,1.70
2017-12-19T01:00:48.520Z,1.80
2017-12-19T01:03:16.051Z,1.80
2017-12-19T01:05:43.623Z,1.70
2017-12-19T01:08:11.187Z,1.70
2017-12-19T01:10:38.719Z,1.80
2017-12-19T01:13:06.294Z,1.80
2017-12-19T01:15:33.869Z,1.80
2017-12-19T01:18:01.397Z,1.80
2017-12-19T01:20:28.977Z,1.80
2017-12-19T01:22:56.743Z,1.80
2017-12-19T01:25:24.302Z,1.70
2017-12-19T01:27:51.882Z,1.70
2017-12-19T01:30:19.411Z,1.70
2017-12-19T01:32:46.984Z,1.70
2017-12-19T01:35:14.511Z,1.70
2017-12-19T01:37:42.847Z,1.70
2017-12-19T01:40:10.384Z,1.70
2017-12-19T01:42:37.957Z,1.70
2017-12-19T01:45:05.486Z,1.70
2017-12-19T01:47:33.055Z,1.70
2017-12-19T01:50:00.584Z,1.70
2017-12-19T01:52:28.924Z,1.70
2017-12-19T01:54:56.453Z,1.70
2017-12-19T01:57:24.027Z,1.70
2017-12-19T01:59:51.556Z,1.70
2017-12-19T02:02:19.129Z,1.70
2017-12-19T02:04:46.655Z,1.70
2017-12-19T02:07:14.996Z,1.70
2017-12-19T02:09:42.525Z,1.70
2017-12-19T02:12:10.100Z,1.70
2017-12-19T02:14:37.628Z,1.70
2017-12-19T02:17:05.198Z,1.70
2017-12-19T02:19:32.722Z,1.70
2017-12-19T02:22:01.060Z,1.70
2017-12-19T02:24:28.623Z,1.70
2017-12-19T02:26:56.270Z,1.70
2017-12-19T02:29:23.805Z,1.70
2017-12-19T02:31:51.396Z,1.70
2017-12-19T02:34:18.921Z,1.70
2017-12-19T02:36:46.451Z,1.70
2017-12-19T02:39:14.027Z,1.70
2017-12-19T02:41:42.325Z,1.70
2017-12-19T02:44:09.900Z,1.70
2017-12-19T02:46:37.423Z,1.70
2017-12-19T02:49:05.763Z,1.70
2017-12-19T02:51:33.289Z,1.70
2017-12-19T02:54:00.870Z,1.70
2017-12-19T02:56:28.401Z,1.70
2017-12-19T02:58:55.976Z,1.70
2017-12-19T03:01:23.506Z,1.70
2017-12-19T03:03:51.079Z,1.70
2017-12-19T03:06:18.612Z,1.70
2017-12-19T03:08:46.943Z,1.70
2017-12-19T03:11:14.474Z,1.70
2017-12-19T03:13:42.050Z,1.70
2017-12-19T03:16:09.579Z,1.60
2017-12-19T03:18:37.165Z,1.70
2017-12-19T03:21:04.741Z,1.70
2017-12-19T03:23:32.301Z,1.70
2017-12-19T03:25:59.832Z,1.70
2017-12-19T03:28:27.364Z,1.70
2017-12-19T03:30:55.698Z,1.70
2017-12-19T03:33:23.237Z,1.60
2017-12-19T03:35:50.812Z,1.70
2017-12-19T03:38:18.339Z,1.70
2017-12-19T03:40:45.908Z,1.70
2017-12-19T03:43:13.440Z,1.70
2017-12-19T03:45:41.779Z,1.60
2017-12-19T03:48:09.314Z,1.60
2017-12-19T03:50:36.889Z,1.60
2017-12-19T03:53:04.477Z,1.60
2017-12-19T03:55:32.024Z,1.60
2017-12-19T03:57:59.563Z,1.70
2017-12-19T04:00:27.141Z,1.60
2017-12-19T04:02:54.673Z,1.60
2017-12-19T04:05:22.243Z,1.70
2017-12-19T04:07:49.775Z,1.60
2017-12-19T04:10:17.343Z,1.60
2017-12-19T04:12:44.872Z,1.70
2017-12-19T04:15:13.212Z,1.60
2017-12-19T04:17:40.745Z,1.60
2017-12-19T04:20:08.406Z,1.60
2017-12-19T04:22:35.936Z,1.60
2017-12-19T04:25:04.280Z,1.70
2017-12-19T04:27:31.806Z,1.60
2017-12-19T04:29:59.378Z,1.60
2017-12-19T04:32:26.909Z,1.60
2017-12-19T04:34:54.509Z,1.60
2017-12-19T04:37:22.042Z,1.60
2017-12-19T04:39:49.612Z,1.60
2017-12-19T04:42:17.138Z,1.60
2017-12-19T04:44:44.714Z,1.60
2017-12-19T04:47:12.244Z,1.70
2017-12-19T04:49:40.591Z,1.60
2017-12-19T04:52:08.120Z,1.60
2017-12-19T04:54:35.697Z,1.60
2017-12-19T04:57:03.267Z,1.60
2017-12-19T04:59:30.834Z,1.60
2017-12-19T05:01:58.359Z,1.60
2017-12-19T05:04:25.932Z,1.60
2017-12-19T05:06:53.575Z,1.60
2017-12-19T05:09:21.149Z,1.60
2017-12-19T05:11:48.693Z,1.60
2017-12-19T05:14:16.264Z,1.60
2017-12-19T05:16:43.791Z,1.60
2017-12-19T05:19:11.371Z,1.60
2017-12-19T05:21:38.900Z,1.60
2017-12-19T05:24:07.191Z,1.60
2017-12-19T05:26:34.759Z,1.60
2017-12-19T05:29:02.288Z,1.60
2017-12-19T05:31:30.624Z,1.60
2017-12-19T05:33:58.266Z,1.60
2017-12-19T05:36:25.840Z,1.60
2017-12-19T05:38:53.369Z,1.60
2017-12-19T05:41:20.948Z,1.60
2017-12-19T05:43:48.503Z,1.60
2017-12-19T05:46:16.077Z,1.60
2017-12-19T05:48:43.606Z,1.60
2017-12-19T05:51:11.185Z,1.60
2017-12-19T05:53:38.721Z,1.60
2017-12-19T05:56:06.286Z,1.60
2017-12-19T05:58:33.815Z,1.60
2017-12-19T06:01:01.389Z,1.60
2017-12-19T06:03:29.689Z,1.60
2017-12-19T06:05:57.258Z,1.60
2017-12-19T06:08:24.793Z,1.60
2017-12-19T06:10:52.371Z,1.60
2017-12-19T06:13:19.898Z,1.60
2017-12-19T06:15:48.226Z,1.60
2017-12-19T06:18:15.757Z,1.60
2017-12-19T06:20:43.331Z,1.60
2017-12-19T06:23:10.861Z,1.60
2017-12-19T06:25:39.195Z,1.60
2017-12-19T06:28:06.732Z,1.50
2017-12-19T06:30:34.308Z,1.60
2017-12-19T06:33:01.844Z,1.60
2017-12-19T06:35:29.413Z,1.60
2017-12-19T06:37:56.944Z,1.60
2017-12-19T06:40:24.516Z,1.60
2017-12-19T06:42:52.053Z,1.60
2017-12-19T06:45:20.405Z,1.60
2017-12-19T06:47:47.935Z,1.60
2017-12-19T06:50:15.480Z,1.60
2017-12-19T06:52:43.046Z,1.60
2017-12-19T06:55:10.599Z,1.60
2017-12-19T06:57:38.172Z,1.60
2017-12-19T07:00:05.706Z,1.60
2017-12-19T07:02:33.285Z,1.60
2017-12-19T07:05:00.869Z,1.60
2017-12-19T07:07:28.425Z,1.60
2017-12-19T07:09:55.964Z,1.60
2017-12-19T07:12:23.543Z,1.60
2017-12-19T07:14:51.065Z,1.60
2017-12-19T07:17:18.650Z,1.60
2017-12-19T07:19:46.190Z,1.60
2017-12-19T07:22:14.527Z,1.60
2017-12-19T07:24:42.134Z,1.60
2017-12-19T07:27:09.709Z,1.60
2017-12-19T07:29:37.237Z,1.60
2017-12-19T07:32:04.808Z,1.50
2017-12-19T07:34:32.335Z,1.50
2017-12-19T07:37:00.676Z,1.50
2017-12-19T07:39:28.214Z,1.50
2017-12-19T07:41:55.877Z,1.50
2017-12-19T07:44:23.413Z,1.30
2017-12-19T07:46:50.983Z,1.30
2017-12-19T07:49:18.514Z,1.40
2017-12-19T07:51:46.848Z,1.50
2017-12-19T07:54:14.391Z,1.50
2017-12-19T07:56:41.963Z,1.50
2017-12-19T07:59:09.489Z,1.50
2017-12-19T08:01:37.066Z,1.50
2017-12-19T08:04:04.598Z,1.50
2017-12-19T08:06:32.175Z,1.50
2017-12-19T08:08:59.750Z,1.50
2017-12-19T08:11:27.296Z,1.50
2017-12-19T08:13:54.888Z,1.50
2017-12-19T08:16:22.428Z,1.50
2017-12-19T08:18:50.017Z,1.50
2017-12-19T08:21:17.560Z,1.50
2017-12-19T08:23:45.128Z,1.50
2017-12-19T08:26:12.664Z,1.60
2017-12-19T08:28:40.240Z,1.60
2017-12-19T08:31:07.769Z,1.60
2017-12-19T08:33:35.356Z,1.60
2017-12-19T08:36:02.892Z,1.50
2017-12-19T08:38:30.432Z,1.60
2017-12-19T08:40:58.018Z,1.60
2017-12-19T08:43:25.605Z,1.60
2017-12-19T08:45:53.140Z,1.60
2017-12-19T08:48:20.676Z,1.60
2017-12-19T08:50:48.257Z,1.60
2017-12-19T08:53:15.848Z,1.60
2017-12-19T08:55:43.379Z,1.60
2017-12-19T08:58:10.917Z,1.60
2017-12-19T09:00:38.497Z,1.60
2017-12-19T09:03:06.072Z,1.60
2017-12-19T09:05:33.601Z,1.60
2017-12-19T09:08:01.184Z,1.60
2017-12-19T09:10:28.712Z,1.60
2017-12-19T09:12:56.293Z,1.60
2017-12-19T09:15:23.829Z,1.60
2017-12-19T09:17:51.405Z,1.60
2017-12-19T09:20:18.941Z,1.60
2017-12-19T09:22:47.349Z,1.60
2017-12-19T09:25:14.880Z,1.60
2017-12-19T09:27:43.180Z,1.70
2017-12-19T09:30:10.764Z,1.60
2017-12-19T09:32:38.346Z,1.70
2017-12-19T09:35:05.883Z,1.70
2017-12-19T09:37:33.465Z,1.70
2017-12-19T09:40:01.000Z,1.70
2017-12-19T09:42:28.587Z,1.70
2017-12-19T09:44:56.205Z,1.70
2017-12-19T09:47:23.775Z,1.70
2017-12-19T09:49:51.313Z,1.70
2017-12-19T09:52:18.895Z,1.70
2017-12-19T09:54:46.427Z,1.70
2017-12-19T09:57:14.002Z,1.70
2017-12-19T09:59:41.534Z,1.70
2017-12-19T10:02:09.838Z,1.70
2017-12-19T10:04:37.423Z,1.70
2017-12-19T10:07:05.008Z,1.70
2017-12-19T10:09:32.586Z,1.80
2017-12-19T10:12:00.895Z,1.80
2017-12-19T10:14:28.468Z,1.70
2017-12-19T10:16:56.120Z,1.70
2017-12-19T10:19:23.655Z,1.70
2017-12-19T10:21:51.232Z,1.80
2017-12-19T10:24:18.764Z,1.80
2017-12-19T10:26:47.116Z,1.80
2017-12-19T10:29:14.682Z,1.80
2017-12-19T10:31:42.257Z,1.80
2017-12-19T10:34:10.552Z,1.80
2017-12-19T10:36:38.136Z,1.80
2017-12-19T10:39:05.671Z,1.80
2017-12-19T10:41:33.263Z,1.80
2017-12-19T10:44:00.827Z,1.80
2017-12-19T10:46:28.359Z,1.80
2017-12-19T10:48:56.031Z,1.80
2017-12-19T10:51:23.581Z,1.90
2017-12-19T10:53:51.156Z,1.90
2017-12-19T10:56:18.708Z,1.90
2017-12-19T10:58:46.283Z,1.90
2017-12-19T11:01:13.812Z,1.90
2017-12-19T11:03:41.385Z,1.90
2017-12-19T11:06:08.920Z,1.90
2017-12-19T11:08:37.257Z,1.90
2017-12-19T11:11:04.788Z,1.90
2017-12-19T11:13:32.364Z,1.90
2017-12-19T11:15:59.901Z,1.90
2017-12-19T11:18:27.481Z,1.90
2017-12-19T11:20:55.018Z,1.90
2017-12-19T11:23:22.598Z,2.00
2017-12-19T11:25:50.128Z,1.90
2017-12-19T11:28:17.726Z,1.90
2017-12-19T11:30:45.259Z,1.90
2017-12-19T11:33:12.797Z,2.00
2017-12-19T11:35:40.376Z,2.10
2017-12-19T11:38:07.902Z,2.00
2017-12-19T11:40:36.242Z,2.10
2017-12-19T11:43:03.824Z,2.00
2017-12-19T11:45:31.356Z,2.10
2017-12-19T11:47:58.947Z,2.10
2017-12-19T11:50:26.484Z,2.10
2017-12-19T11:52:54.020Z,2.10
2017-12-19T11:55:21.596Z,2.10
2017-12-19T11:57:49.131Z,2.10
2017-12-19T12:00:16.714Z,2.20
2017-12-19T12:02:44.253Z,2.20
2017-12-19T12:05:11.832Z,2.30
2017-12-19T12:07:39.370Z,2.30
2017-12-19T12:10:06.943Z,2.30
2017-12-19T12:12:34.467Z,2.50
2017-12-19T12:15:02.049Z,2.70
2017-12-19T12:17:29.580Z,2.80
2017-12-19T12:19:57.920Z,2.80
2017-12-19T12:22:25.455Z,2.80
2017-12-19T12:24:53.027Z,2.80
2017-12-19T12:27:20.563Z,2.80
2017-12-19T12:29:48.139Z,2.70
2017-12-19T12:32:15.668Z,2.70
2017-12-19T12:34:43.346Z,2.60
2017-12-19T12:37:10.873Z,2.60
2017-12-19T12:39:39.213Z,2.70
2017-12-19T12:42:06.749Z,2.60
2017-12-19T12:44:34.332Z,2.70
2017-12-19T12:47:01.874Z,2.70
2017-12-19T12:49:29.451Z,2.70
2017-12-19T12:51:56.986Z,2.70
2017-12-19T12:54:24.561Z,2.70
2017-12-19T12:56:52.094Z,2.70
2017-12-19T12:59:19.668Z,2.60
2017-12-19T13:01:47.202Z,2.60
2017-12-19T13:04:14.781Z,2.60
2017-12-19T13:06:42.317Z,2.50
2017-12-19T13:09:10.001Z,2.50
2017-12-19T13:11:37.533Z,2.50
2017-12-19T13:14:05.111Z,2.50
2017-12-19T13:16:32.648Z,3.00
2017-12-19T13:19:00.997Z,4.70
2017-12-19T13:21:28.579Z,4.70
2017-12-19T13:23:56.156Z,5.30
2017-12-19T13:26:23.687Z,5.80
2017-12-19T13:28:51.987Z,6.40
2017-12-19T13:31:19.571Z,6.30
2017-12-19T13:33:47.116Z,6.50
2017-12-19T13:36:14.702Z,6.70
2017-12-19T13:38:42.243Z,6.80
2017-12-19T13:41:09.914Z,6.90
2017-12-19T13:43:37.458Z,7.00
2017-12-19T13:46:05.045Z,7.10
2017-12-19T13:48:32.696Z,7.10
2017-12-19T13:51:00.280Z,7.10
2017-12-19T13:53:27.819Z,7.20
2017-12-19T13:55:55.405Z,7.20
2017-12-19T13:58:23.036Z,7.30
2017-12-19T14:00:50.615Z,7.30
2017-12-19T14:03:18.185Z,7.30
2017-12-19T14:05:45.774Z,7.30
2017-12-19T14:08:14.079Z,7.30
2017-12-19T14:10:41.668Z,7.20
2017-12-19T14:13:09.226Z,7.30
2017-12-19T14:15:36.818Z,7.20
2017-12-19T14:18:04.364Z,7.20
2017-12-19T14:20:31.957Z,7.20
2017-12-19T14:23:00.264Z,7.20
2017-12-19T14:25:27.844Z,7.20
2017-12-19T14:27:55.389Z,7.20
2017-12-19T14:30:22.980Z,7.20
2017-12-19T14:32:50.567Z,7.20
2017-12-19T14:35:18.872Z,7.10
2017-12-19T14:37:46.417Z,7.10
2017-12-19T14:40:14.007Z,7.20
2017-12-19T14:42:41.604Z,7.10
2017-12-19T14:45:09.148Z,7.10
2017-12-19T14:47:36.688Z,7.00
2017-12-19T14:50:04.263Z,7.00
2017-12-19T14:52:31.808Z,7.00
2017-12-19T14:54:59.389Z,7.00
2017-12-19T14:57:26.937Z,7.00
2017-12-19T14:59:54.519Z,6.90
2017-12-19T15:02:22.060Z,6.90
2017-12-19T15:04:49.709Z,6.90
2017-12-19T15:07:17.247Z,6.90
2017-12-19T15:09:44.832Z,6.80
2017-12-19T15:12:12.381Z,6.90
2017-12-19T15:14:39.958Z,6.80
2017-12-19T15:17:07.544Z,6.80
2017-12-19T15:19:35.102Z,6.80
2017-12-19T15:22:02.645Z,6.80
2017-12-19T15:24:30.237Z,6.80
2017-12-19T15:26:58.543Z,6.70
2017-12-19T15:29:26.129Z,6.70
2017-12-19T15:31:53.678Z,6.60
2017-12-19T15:34:21.258Z,6.60
2017-12-19T15:36:48.801Z,6.60
2017-12-19T15:39:16.383Z,6.60
2017-12-19T15:41:43.933Z,6.60
2017-12-19T15:44:11.515Z,6.60
2017-12-19T15:46:39.054Z,6.50
2017-12-19T15:49:06.634Z,6.50
2017-12-19T15:51:34.178Z,6.50
2017-12-19T15:54:01.772Z,6.50
2017-12-19T15:56:29.378Z,6.50
2017-12-19T15:58:57.692Z,6.40
2017-12-19T16:01:25.224Z,6.40
2017-12-19T16:03:52.808Z,6.40
2017-12-19T16:06:20.350Z,6.40
2017-12-19T16:08:47.926Z,6.30
2017-12-19T16:11:15.472Z,6.30
2017-12-19T16:13:43.051Z,6.30
2017-12-19T16:16:10.597Z,6.30
2017-12-19T16:18:38.176Z,6.30
2017-12-19T16:21:05.720Z,6.20
2017-12-19T16:23:33.304Z,6.20
2017-12-19T16:26:00.847Z,6.20
2017-12-19T16:28:28.443Z,6.20
2017-12-19T16:30:56.744Z,6.20
2017-12-19T16:33:24.280Z,6.20
2017-12-19T16:35:52.620Z,6.10
2017-12-19T16:38:20.368Z,6.10
2017-12-19T16:40:47.956Z,6.10
2017-12-19T16:43:15.547Z,6.10
2017-12-19T16:45:43.088Z,6.10
2017-12-19T16:48:11.389Z,6.00
2017-12-19T16:50:38.973Z,6.00
2017-12-19T16:53:06.515Z,6.00
2017-12-19T16:55:34.102Z,6.00
2017-12-19T16:58:01.647Z,6.00
2017-12-19T17:00:29.232Z,5.90
2017-12-19T17:02:56.776Z,5.90
2017-12-19T17:05:24.365Z,5.90
2017-12-19T17:07:51.904Z,5.90
2017-12-19T17:10:19.481Z,5.80
2017-12-19T17:12:47.657Z,5.90
2017-12-19T17:15:15.237Z,5.80
2017-12-19T17:17:42.852Z,5.80
2017-12-19T17:20:10.425Z,5.80
2017-12-19T17:22:37.964Z,5.70
2017-12-19T17:25:05.544Z,5.70
2017-12-19T17:27:33.080Z,5.70
2017-12-19T17:30:00.661Z,5.70
2017-12-19T17:32:28.204Z,5.70
2017-12-19T17:34:55.785Z,5.70
2017-12-19T17:37:23.363Z,5.60
2017-12-19T17:39:51.155Z,5.60
2017-12-19T17:42:19.511Z,5.60
2017-12-19T17:44:47.098Z,5.60
2017-12-19T17:47:15.408Z,5.60
2017-12-19T17:49:42.993Z,5.50
2017-12-19T17:52:10.537Z,5.50
2017-12-19T17:54:38.118Z,5.50
2017-12-19T17:57:05.695Z,5.50
2017-12-19T17:59:33.272Z,5.50
2017-12-19T18:02:01.619Z,5.50
2017-12-19T18:04:29.196Z,5.40
2017-12-19T18:06:56.779Z,5.40
2017-12-19T18:09:24.364Z,5.40
2017-12-19T18:11:51.901Z,5.40
2017-12-19T18:14:19.484Z,5.40
2017-12-19T18:16:47.046Z,5.40
2017-12-19T18:19:14.686Z,5.40
2017-12-19T18:21:42.271Z,5.40
2017-12-19T18:24:10.029Z,5.40
2017-12-19T18:26:37.615Z,5.30
2017-12-19T18:29:07.254Z,5.30
2017-12-19T18:31:34.811Z,5.30
2017-12-19T18:34:03.162Z,5.30
2017-12-19T18:36:30.700Z,5.30
2017-12-19T18:38:58.330Z,5.30
2017-12-19T18:41:25.867Z,5.30
2017-12-19T18:43:54.216Z,5.20
2017-12-19T18:46:21.805Z,5.20
2017-12-19T18:48:49.444Z,5.20
2017-12-19T18:51:16.984Z,5.20
2017-12-19T18:53:44.614Z,5.20
2017-12-19T18:56:12.197Z,5.20
2017-12-19T18:58:39.819Z,5.20
2017-12-19T19:01:08.168Z,5.20
2017-12-19T19:03:35.795Z,5.10
2017-12-19T19:06:03.355Z,5.10
2017-12-19T19:08:30.900Z,5.10
2017-12-19T19:10:58.526Z,5.10
2017-12-19T19:13:26.061Z,5.10
2017-12-19T19:15:53.688Z,5.10
2017-12-19T19:18:21.223Z,5.10
2017-12-19T19:20:49.620Z,5.00
2017-12-19T19:23:17.208Z,5.10
2017-12-19T19:25:44.787Z,5.10
2017-12-19T19:28:12.380Z,5.00
2017-12-19T19:30:44.835Z,5.00
2017-12-19T19:33:13.310Z,5.00
2017-12-19T19:35:40.949Z,5.00
2017-12-19T19:38:08.486Z,5.00
2017-12-19T19:40:36.264Z,5.00
2017-12-19T19:43:03.846Z,5.00
2017-12-19T19:45:31.480Z,4.90
2017-12-19T19:47:59.073Z,4.90
2017-12-19T19:50:26.659Z,4.90
2017-12-19T19:52:55.015Z,4.90
2017-12-19T19:55:22.644Z,4.80
2017-12-19T19:57:50.218Z,4.90
2017-12-19T20:00:17.794Z,4.80
2017-12-19T20:02:45.337Z,4.80
2017-12-19T20:05:12.967Z,4.80
2017-12-19T20:07:40.554Z,4.80
2017-12-19T20:10:08.087Z,4.70
2017-12-19T20:12:35.723Z,4.70
2017-12-19T20:15:04.069Z,4.70
2017-12-19T20:17:31.649Z,4.70
2017-12-19T20:19:59.291Z,4.70
2017-12-19T20:22:26.883Z,4.70
2017-12-19T20:24:55.308Z,4.70
2017-12-19T20:27:22.940Z,4.70
2017-12-19T20:29:50.532Z,4.70
2017-12-19T20:32:18.161Z,4.60
2017-12-19T20:34:45.697Z,4.60
2017-12-19T20:37:14.087Z,4.60
2017-12-19T20:39:42.430Z,4.60
2017-12-19T20:42:10.055Z,4.60
2017-12-19T20:44:37.689Z,4.60
2017-12-19T20:47:05.994Z,4.50
2017-12-19T20:49:33.569Z,4.50
2017-12-19T20:52:01.200Z,4.50
2017-12-19T20:54:28.804Z,4.50
2017-12-19T20:56:56.379Z,4.50
2017-12-19T20:59:23.983Z,4.50
2017-12-19T21:01:51.558Z,4.50
2017-12-19T21:04:19.154Z,4.50
2017-12-19T21:06:46.793Z,4.50
2017-12-19T21:09:14.379Z,4.40
2017-12-19T21:11:42.012Z,4.40
2017-12-19T21:14:09.640Z,4.40
2017-12-19T21:16:37.993Z,4.40
2017-12-19T21:19:05.571Z,4.40
2017-12-19T21:21:33.876Z,4.40
2017-12-19T21:24:01.543Z,4.30
2017-12-19T21:26:29.139Z,4.40
2017-12-19T21:28:56.728Z,4.30
2017-12-19T21:31:25.125Z,4.30
2017-12-19T21:33:52.764Z,4.30
2017-12-19T21:36:21.122Z,4.30
2017-12-19T21:38:48.705Z,4.30
2017-12-19T21:41:17.040Z,4.20
2017-12-19T21:43:44.615Z,4.30
2017-12-19T21:46:12.245Z,4.20
2017-12-19T21:51:31.333Z,4.20
2017-12-19T21:53:58.916Z,4.20
2017-12-19T21:56:26.550Z,4.20
2017-12-19T21:58:54.140Z,4.20
2017-12-19T22:01:21.759Z,4.20
2017-12-19T22:03:49.343Z,4.20
2017-12-19T22:06:16.968Z,4.20
2017-12-19T22:08:44.504Z,4.10
2017-12-19T22:11:12.899Z,4.10
2017-12-19T22:13:41.201Z,4.10
2017-12-19T22:16:08.833Z,4.10
2017-12-19T22:18:37.183Z,4.10
2017-12-19T22:21:04.812Z,4.00
2017-12-19T22:23:32.434Z,4.10
2017-12-19T22:26:00.779Z,4.10
2017-12-19T22:28:28.402Z,4.00
2017-12-19T22:30:55.996Z,4.00
2017-12-19T22:33:23.572Z,4.00
2017-12-19T22:35:51.164Z,4.00
2017-12-19T22:38:18.788Z,4.00
2017-12-19T22:40:46.326Z,4.00
2017-12-19T22:43:13.864Z,4.00
2017-12-19T22:45:41.445Z,4.00
2017-12-19T22:48:09.031Z,3.90
2017-12-19T22:50:36.651Z,3.90
2017-12-19T22:53:04.226Z,4.00
2017-12-19T22:55:31.865Z,3.90
2017-12-19T22:57:59.450Z,3.90
2017-12-19T23:00:27.038Z,3.90
2017-12-19T23:02:55.389Z,3.90
2017-12-19T23:05:23.020Z,3.90
2017-12-19T23:07:50.552Z,3.90
2017-12-19T23:10:18.942Z,3.80
2017-12-19T23:12:46.480Z,3.80
2017-12-19T23:15:14.057Z,3.80
2017-12-19T23:17:42.409Z,3.80
2017-12-19T23:20:10.038Z,3.80
2017-12-19T23:22:37.574Z,3.80
2017-12-19T23:25:05.212Z,3.80
2017-12-19T23:27:33.516Z,3.80
2017-12-19T23:30:01.104Z,3.80
2017-12-19T23:32:28.647Z,3.80
2017-12-19T23:34:56.284Z,3.80
2017-12-19T23:37:23.872Z,3.80
2017-12-19T23:39:51.505Z,3.70
2017-12-19T23:42:19.093Z,3.70
2017-12-19T23:44:46.757Z,3.70
2017-12-19T23:47:14.296Z,3.70
2017-12-19T23:49:41.881Z,3.70
2017-12-19T23:52:09.412Z,3.70
2017-12-19T23:54:36.989Z,3.70
2017-12-19T23:57:04.570Z,3.70
2017-12-19T23:59:32.148Z,3.70
